Time;durP1;ratioP1;P1;durP2;ratioP2;P2;SDS_P1;SDS_P2;PMS_P1;PMS_P2;Temp;Humidity;BMP_temperature;BMP_pressure;BME280_temperature;BME280_humidity;BME280_pressure;Samples;Min_cycle;Max_cycle;Signal;HPM_P1;HPM_P2
2024/01/03 00:02:10;;;;;;;13.27;1.15;;;11.00;99.90;;;;;;4957769;28;89484;-78
2024/01/03 00:04:36;;;;;;;12.77;1.08;;;11.00;99.90;;;;;;4957358;28;93145;-77
2024/01/03 00:07:04;;;;;;;6.55;1.30;;;11.00;99.90;;;;;;4974065;28;86468;-79
2024/01/03 00:09:31;;;;;;;10.27;0.98;;;11.00;99.90;;;;;;4973586;28;86235;-80
2024/01/03 00:12:00;;;;;;;11.40;1.73;;;10.90;99.90;;;;;;4945624;28;88027;-77
2024/01/03 00:14:31;;;;;;;10.07;2.83;;;10.90;99.90;;;;;;4950333;28;91950;-78
2024/01/03 00:17:14;;;;;;;12.30;1.27;;;10.80;99.90;;;;;;4959651;28;86828;-77
2024/01/03 00:19:41;;;;;;;;;;;10.80;99.90;;;;;;4956744;28;89144;-77
2024/01/03 00:22:15;;;;;;;8.85;1.38;;;10.80;99.90;;;;;;4974634;28;90418;-79
2024/01/03 00:24:49;;;;;;;8.35;1.50;;;10.80;99.90;;;;;;4968860;28;87340;-79
2024/01/03 00:27:23;;;;;;;9.65;1.45;;;10.80;99.90;;;;;;4976755;28;86654;-78
2024/01/03 00:30:06;;;;;;;14.70;1.75;;;10.70;99.90;;;;;;4977221;28;86082;-77
2024/01/03 00:32:43;;;;;;;7.93;0.90;;;10.70;99.90;;;;;;4965258;28;88640;-77
2024/01/03 00:35:12;;;;;;;9.60;1.25;;;10.70;99.90;;;;;;4966663;28;88062;-77
2024/01/03 00:37:46;;;;;;;13.10;1.67;;;10.60;99.90;;;;;;4976461;28;87145;-77
2024/01/03 00:40:31;;;;;;;12.88;1.00;;;10.50;99.90;;;;;;4951405;28;86629;-77
2024/01/03 00:42:57;;;;;;;8.73;1.55;;;10.50;99.90;;;;;;4970059;28;90796;-77
2024/01/03 00:45:25;;;;;;;8.13;1.13;;;10.50;99.90;;;;;;4975479;28;87192;-78
2024/01/03 00:47:53;;;;;;;8.13;1.02;;;10.50;99.90;;;;;;4951929;28;86416;-77
2024/01/03 00:50:19;;;;;;;9.55;1.50;;;10.50;99.90;;;;;;4958694;28;86311;-78
2024/01/03 00:53:04;;;;;;;14.00;1.40;;;10.60;99.90;;;;;;4960853;28;89257;-79
2024/01/03 00:55:31;;;;;;;9.07;0.85;;;10.70;99.90;;;;;;4959652;28;90652;-79
2024/01/03 00:57:58;;;;;;;9.23;1.33;;;10.60;99.90;;;;;;4960309;28;86638;-79
2024/01/03 01:00:24;;;;;;;11.23;1.67;;;10.60;99.90;;;;;;4962736;28;87220;-77
2024/01/03 01:02:50;;;;;;;9.43;1.02;;;10.60;99.90;;;;;;4958503;28;90511;-78
2024/01/03 01:05:23;;;;;;;9.15;1.20;;;10.60;99.90;;;;;;4974567;28;87113;-78
2024/01/03 01:07:50;;;;;;;6.65;0.70;;;10.60;99.90;;;;;;4975719;28;86974;-77
2024/01/03 01:10:16;;;;;;;11.75;1.80;;;10.60;99.90;;;;;;4964122;28;86054;-77
2024/01/03 01:12:42;;;;;;;5.63;0.90;;;10.60;99.90;;;;;;4966621;28;88684;-78
2024/01/03 01:15:09;;;;;;;11.43;1.08;;;10.60;99.90;;;;;;4947009;28;89424;-77
2024/01/03 01:17:35;;;;;;;8.93;1.27;;;10.60;99.90;;;;;;4954738;28;86096;-78
2024/01/03 01:20:13;;;;;;;11.75;1.40;;;10.70;99.90;;;;;;4971538;28;86546;-78
2024/01/03 01:22:43;;;;;;;9.70;1.20;;;10.60;99.90;;;;;;4971559;28;90476;-77
2024/01/03 01:25:09;;;;;;;4.30;0.57;;;10.60;99.90;;;;;;4937824;28;90903;-78
2024/01/03 01:27:41;;;;;;;11.82;1.20;;;10.60;99.90;;;;;;4970699;28;86307;-77
2024/01/03 01:30:09;;;;;;;7.43;0.70;;;10.70;99.90;;;;;;4954474;28;88766;-77
2024/01/03 01:32:35;;;;;;;6.50;0.90;;;10.60;99.90;;;;;;4937509;28;90045;-77
2024/01/03 01:35:03;;;;;;;11.82;1.98;;;10.60;99.90;;;;;;4967722;28;87882;-77
2024/01/03 01:37:33;;;;;;;7.50;0.60;;;10.60;99.90;;;;;;4955499;28;89111;-77
2024/01/03 01:39:59;;;;;;;5.45;0.82;;;10.60;99.90;;;;;;4947853;28;87826;-77
2024/01/03 01:42:36;;;;;;;12.23;1.00;;;10.60;99.90;;;;;;4970960;28;91516;-78
2024/01/03 01:45:02;;;;;;;9.50;1.38;;;10.50;99.90;;;;;;4954711;28;89785;-78
2024/01/03 01:47:30;;;;;;;4.57;0.70;;;10.50;99.90;;;;;;4938250;28;86877;-79
2024/01/03 01:49:58;;;;;;;10.30;1.00;;;10.50;99.90;;;;;;4954653;28;85870;-78
2024/01/03 01:52:24;;;;;;;5.82;0.85;;;10.50;99.90;;;;;;4971953;28;86610;-77
2024/01/03 01:54:52;;;;;;;10.10;1.90;;;10.50;99.90;;;;;;4933015;28;89054;-77
2024/01/03 01:57:22;;;;;;;7.38;0.80;;;10.40;99.90;;;;;;4951454;28;86038;-79
2024/01/03 01:59:49;;;;;;;9.68;1.00;;;10.40;99.90;;;;;;4970529;28;86085;-78
2024/01/03 02:02:19;;;;;;;9.80;1.52;;;10.40;99.90;;;;;;4968871;28;89428;-78
2024/01/03 02:04:52;;;;;;;8.88;1.80;;;10.40;99.90;;;;;;4971758;28;88152;-77
2024/01/03 02:07:25;;;;;;;8.37;0.90;;;10.40;99.90;;;;;;4972170;28;86849;-77
2024/01/03 02:09:53;;;;;;;4.95;0.80;;;10.40;99.90;;;;;;4939225;28;87105;-77
2024/01/03 02:12:31;;;;;;;5.85;1.38;;;10.40;99.90;;;;;;4948168;28;90212;-77
2024/01/03 02:14:57;;;;;;;8.25;0.93;;;10.40;99.90;;;;;;4965532;28;86474;-77
2024/01/03 02:17:23;;;;;;;6.70;1.05;;;10.30;99.90;;;;;;4953370;28;86263;-77
2024/01/03 02:19:50;;;;;;;3.53;0.63;;;10.30;99.90;;;;;;4952879;28;86900;-77
2024/01/03 02:22:19;;;;;;;5.57;0.75;;;10.20;99.90;;;;;;4950502;28;88510;-76
2024/01/03 02:24:45;;;;;;;5.03;0.55;;;10.20;99.90;;;;;;4922904;28;88825;-78
2024/01/03 02:27:11;;;;;;;5.82;0.50;;;10.10;99.90;;;;;;4966406;28;86350;-77
2024/01/03 02:29:37;;;;;;;6.93;0.57;;;10.10;99.90;;;;;;4967845;28;86604;-78
2024/01/03 02:32:05;;;;;;;5.35;0.80;;;10.10;99.90;;;;;;4952535;28;89892;-78
2024/01/03 02:34:33;;;;;;;5.05;1.00;;;10.00;99.90;;;;;;4969466;28;87500;-77
2024/01/03 02:37:02;;;;;;;12.02;1.42;;;10.00;99.90;;;;;;4952589;28;85976;-79
2024/01/03 02:39:29;;;;;;;10.15;0.98;;;10.00;99.90;;;;;;4955245;28;91490;-77
2024/01/03 02:41:54;;;;;;;6.75;1.58;;;10.00;99.90;;;;;;4938862;28;90158;-76
2024/01/03 02:44:23;;;;;;;5.72;1.30;;;10.00;99.90;;;;;;4958456;28;86352;-78
2024/01/03 02:46:56;;;;;;;7.50;0.65;;;10.00;99.90;;;;;;4957215;28;86469;-78
2024/01/03 02:49:27;;;;;;;11.27;0.98;;;10.00;99.90;;;;;;4971516;28;86296;-78
2024/01/03 02:51:52;;;;;;;7.90;1.15;;;10.10;99.90;;;;;;4953874;28;90372;-77
2024/01/03 02:54:18;;;;;;;9.25;1.63;;;10.10;99.90;;;;;;4953469;28;89496;-78
2024/01/03 02:56:45;;;;;;;13.20;1.38;;;10.10;99.90;;;;;;4964863;28;86311;-77
2024/01/03 02:59:11;;;;;;;8.85;1.13;;;10.10;99.90;;;;;;4953786;28;86474;-76
2024/01/03 03:01:37;;;;;;;10.48;1.67;;;10.10;99.90;;;;;;4955925;28;93285;-77
2024/01/03 03:04:05;;;;;;;10.50;1.65;;;10.10;99.90;;;;;;4954669;28;90111;-78
2024/01/03 03:06:31;;;;;;;10.98;1.38;;;10.00;99.90;;;;;;4946580;28;86170;-76
2024/01/03 03:09:00;;;;;;;5.70;0.95;;;10.00;99.90;;;;;;4940049;28;86454;-77
2024/01/03 03:11:26;;;;;;;20.80;2.17;;;10.00;99.90;;;;;;4944188;28;89134;-77
2024/01/03 03:13:51;;;;;;;13.88;1.52;;;10.00;99.90;;;;;;4971813;28;88907;-78
2024/01/03 03:16:28;;;;;;;9.13;1.35;;;10.10;99.90;;;;;;4961409;28;86378;-78
2024/01/03 03:18:59;;;;;;;13.75;1.40;;;10.10;99.90;;;;;;4934894;28;86774;-78
2024/01/03 03:21:51;;;;;;;14.93;1.30;;;10.10;99.90;;;;;;4937711;28;89372;-77
2024/01/03 03:24:19;;;;;;;11.18;1.27;;;10.10;99.90;;;;;;4968006;28;89516;-78
2024/01/03 03:26:47;;;;;;;17.90;1.33;;;10.10;99.90;;;;;;4938557;28;86567;-79
2024/01/03 03:29:17;;;;;;;11.83;1.60;;;10.10;99.90;;;;;;4971575;28;86715;-78
2024/01/03 03:31:49;;;;;;;12.00;1.50;;;10.10;99.90;;;;;;4955149;28;90698;-77
2024/01/03 03:34:18;;;;;;;13.82;3.30;;;10.10;99.90;;;;;;4953456;28;86465;-77
2024/01/03 03:36:45;;;;;;;10.75;1.60;;;10.10;99.90;;;;;;4953875;28;86398;-78
2024/01/03 03:39:15;;;;;;;13.45;1.83;;;10.10;99.90;;;;;;4971139;28;86132;-77
2024/01/03 03:41:42;;;;;;;14.77;1.80;;;10.10;99.90;;;;;;4970053;28;89000;-77
2024/01/03 03:44:09;;;;;;;9.88;1.27;;;10.20;99.90;;;;;;4954707;28;89169;-77
2024/01/03 03:46:36;;;;;;;14.82;1.73;;;10.20;99.90;;;;;;4954550;28;90452;-78
2024/01/03 03:49:03;;;;;;;14.45;1.92;;;10.20;99.90;;;;;;4971233;28;87380;-77
2024/01/03 03:51:30;;;;;;;16.38;1.77;;;10.20;99.90;;;;;;4970347;28;90202;-78
2024/01/03 03:53:56;;;;;;;16.58;1.52;;;10.20;99.90;;;;;;4953194;28;86599;-78
2024/01/03 03:56:26;;;;;;;20.48;2.63;;;10.20;99.90;;;;;;4971974;28;86467;-78
2024/01/03 03:58:52;;;;;;;21.95;4.18;;;10.10;99.90;;;;;;4947347;28;85996;-79
2024/01/03 04:01:20;;;;;;;14.85;1.90;;;10.10;99.90;;;;;;4970709;28;86323;-77
2024/01/03 04:03:46;;;;;;;17.70;1.80;;;10.00;99.90;;;;;;4953885;28;89778;-78
2024/01/03 04:06:15;;;;;;;9.20;1.38;;;10.00;99.90;;;;;;4941176;28;87293;-79
2024/01/03 04:08:49;;;;;;;16.52;1.77;;;10.00;99.90;;;;;;4944884;28;86601;-78
2024/01/03 04:11:14;;;;;;;12.65;1.80;;;9.90;99.90;;;;;;4964247;28;90666;-78
2024/01/03 04:13:40;;;;;;;21.00;1.27;;;9.90;99.90;;;;;;4954380;28;90128;-78
2024/01/03 04:16:08;;;;;;;13.75;1.52;;;9.90;99.90;;;;;;4971873;28;86289;-79
2024/01/03 04:18:34;;;;;;;8.82;1.08;;;9.90;99.90;;;;;;4952650;28;86238;-77
2024/01/03 04:21:08;;;;;;;9.98;1.45;;;9.90;99.90;;;;;;4950725;28;89601;-79
2024/01/03 04:23:34;;;;;;;11.57;1.45;;;9.90;99.90;;;;;;4951083;28;89492;-78
2024/01/03 04:26:01;;;;;;;15.07;1.25;;;9.90;99.90;;;;;;4954544;28;86456;-78
2024/01/03 04:28:48;;;;;;;15.40;1.75;;;9.90;99.90;;;;;;4948698;28;86174;-78
2024/01/03 04:31:14;;;;;;;17.23;2.00;;;9.90;99.90;;;;;;4954159;28;87089;-78
2024/01/03 04:33:42;;;;;;;16.00;2.15;;;9.90;99.90;;;;;;4969641;28;86646;-78
2024/01/03 04:36:11;;;;;;;12.73;1.40;;;9.90;99.90;;;;;;4969114;28;86525;-79
2024/01/03 04:38:40;;;;;;;15.15;1.48;;;9.80;99.90;;;;;;4963114;28;87396;-78
2024/01/03 04:41:06;;;;;;;15.20;2.38;;;9.90;99.90;;;;;;4970353;28;88681;-80
2024/01/03 04:43:33;;;;;;;20.02;2.33;;;9.90;99.90;;;;;;4971349;28;90822;-79
2024/01/03 04:46:00;;;;;;;17.30;1.88;;;9.90;99.90;;;;;;4954138;28;86802;-78
2024/01/03 04:48:27;;;;;;;19.25;1.77;;;9.90;99.90;;;;;;4937047;28;85940;-78
2024/01/03 04:51:01;;;;;;;10.02;1.55;;;9.90;99.90;;;;;;4953674;28;90536;-78
2024/01/03 04:53:28;;;;;;;22.02;2.58;;;9.90;99.90;;;;;;4953184;28;87791;-79
2024/01/03 04:55:54;;;;;;;14.20;1.88;;;9.90;99.90;;;;;;4973073;28;86529;-78
2024/01/03 04:58:23;;;;;;;19.83;2.25;;;9.90;99.90;;;;;;4971248;28;86192;-78
2024/01/03 05:00:53;;;;;;;16.10;2.05;;;9.90;99.90;;;;;;4954436;28;87632;-79
2024/01/03 05:03:20;;;;;;;20.02;2.28;;;9.90;99.90;;;;;;4971568;28;86984;-78
2024/01/03 05:05:48;;;;;;;24.33;3.55;;;9.90;99.90;;;;;;4968051;28;85933;-79
2024/01/03 05:08:19;;;;;;;19.43;2.03;;;9.90;99.90;;;;;;4950884;28;86992;-78
2024/01/03 05:10:59;;;;;;;18.08;1.92;;;9.90;99.90;;;;;;4970425;28;90475;-78
2024/01/03 05:13:29;;;;;;;23.60;3.17;;;9.90;99.90;;;;;;4951452;28;87497;-79
2024/01/03 05:16:10;;;;;;;20.17;2.38;;;9.90;99.90;;;;;;4937776;28;86940;-78
2024/01/03 05:18:36;;;;;;;30.00;2.88;;;9.90;99.90;;;;;;4971943;28;86689;-78
2024/01/03 05:21:02;;;;;;;20.75;3.30;;;9.90;99.90;;;;;;4961313;28;90035;-77
2024/01/03 05:23:28;;;;;;;20.20;2.30;;;10.00;99.90;;;;;;4948556;28;89217;-78
2024/01/03 05:25:54;;;;;;;20.27;2.30;;;10.00;99.90;;;;;;4952290;28;86244;-78
2024/01/03 05:28:21;;;;;;;18.58;2.58;;;10.00;99.90;;;;;;4949775;28;85914;-77
2024/01/03 05:30:47;;;;;;;22.90;2.50;;;10.00;99.90;;;;;;4968910;28;89038;-78
2024/01/03 05:33:14;;;;;;;25.85;2.28;;;10.00;99.90;;;;;;4968154;28;87627;-77
2024/01/03 05:35:49;;;;;;;27.40;2.90;;;10.10;99.90;;;;;;4940377;28;86450;-80
2024/01/03 05:38:20;;;;;;;20.67;2.15;;;10.10;99.90;;;;;;4971339;28;86727;-78
2024/01/03 05:40:57;;;;;;;21.70;2.58;;;10.20;99.90;;;;;;4959843;28;89237;-78
2024/01/03 05:43:24;;;;;;;19.50;1.77;;;10.20;99.90;;;;;;4969602;28;86632;-78
2024/01/03 05:45:56;;;;;;;20.85;2.15;;;10.30;99.90;;;;;;4947322;28;86163;-79
2024/01/03 05:48:25;;;;;;;19.55;2.20;;;10.40;99.90;;;;;;4961308;28;88177;-78
2024/01/03 05:50:51;;;;;;;18.63;3.90;;;10.40;99.90;;;;;;4969484;28;89295;-79
2024/01/03 05:53:18;;;;;;;20.95;2.17;;;10.50;99.90;;;;;;4945471;28;88530;-78
2024/01/03 05:55:44;;;;;;;23.08;2.78;;;10.50;99.90;;;;;;4949618;28;86476;-78
2024/01/03 05:58:13;;;;;;;23.20;2.38;;;10.50;99.90;;;;;;4966835;28;86340;-78
2024/01/03 06:00:39;;;;;;;15.57;2.10;;;10.50;99.90;;;;;;4934852;28;90505;-80
2024/01/03 06:03:11;;;;;;;20.73;2.50;;;10.50;99.90;;;;;;4951306;28;88471;-78
2024/01/03 06:05:36;;;;;;;24.80;2.80;;;10.50;99.90;;;;;;4950518;28;86061;-78
2024/01/03 06:08:11;;;;;;;23.27;2.72;;;10.50;99.90;;;;;;4968839;28;86995;-78
2024/01/03 06:10:59;;;;;;;14.45;1.98;;;10.50;99.90;;;;;;4947726;28;93833;-78
2024/01/03 06:13:25;;;;;;;12.93;2.10;;;10.60;99.90;;;;;;4965424;28;88636;-78
2024/01/03 06:15:54;;;;;;;17.20;2.00;;;10.60;99.90;;;;;;4970095;28;86222;-79
2024/01/03 06:18:24;;;;;;;18.67;2.42;;;10.60;99.90;;;;;;4951972;28;86744;-77
2024/01/03 06:20:52;;;;;;;26.70;2.67;;;10.60;99.90;;;;;;4956865;28;89144;-78
2024/01/03 06:23:20;;;;;;;16.45;1.75;;;10.60;99.90;;;;;;4953646;28;88785;-78
2024/01/03 06:25:56;;;;;;;18.65;2.28;;;10.60;99.90;;;;;;4974954;28;86423;-78
2024/01/03 06:28:26;;;;;;;20.38;3.22;;;10.70;99.90;;;;;;4934237;28;89424;-78
2024/01/03 06:30:52;;;;;;;16.95;1.90;;;10.70;99.90;;;;;;4947125;28;95115;-78
2024/01/03 06:33:19;;;;;;;21.42;2.70;;;10.70;99.90;;;;;;4973545;28;88593;-79
2024/01/03 06:35:46;;;;;;;14.40;2.00;;;10.80;99.90;;;;;;4925405;28;88851;-79
2024/01/03 06:38:16;;;;;;;16.77;3.03;;;10.80;99.90;;;;;;4939317;28;86873;-78
2024/01/03 06:40:55;;;;;;;15.57;1.88;;;10.90;99.90;;;;;;4970863;28;87093;-77
2024/01/03 06:43:22;;;;;;;20.75;2.30;;;10.80;99.90;;;;;;4970948;28;88423;-78
2024/01/03 06:45:52;;;;;;;20.42;2.08;;;10.80;99.90;;;;;;4957818;28;86387;-79
2024/01/03 06:48:21;;;;;;;13.93;1.98;;;10.60;99.90;;;;;;4973324;28;86822;-77
2024/01/03 06:50:49;;;;;;;9.52;1.40;;;10.50;99.90;;;;;;4973778;28;88153;-79
2024/01/03 06:53:15;;;;;;;8.35;1.10;;;10.30;99.90;;;;;;4971773;28;86545;-77
2024/01/03 06:55:42;;;;;;;14.23;1.50;;;10.20;99.90;;;;;;4975287;28;86757;-78
2024/01/03 06:58:09;;;;;;;11.25;0.88;;;10.10;99.90;;;;;;4955258;28;86061;-78
2024/01/03 07:00:40;;;;;;;10.82;1.30;;;10.00;99.90;;;;;;4972311;28;87738;-78
2024/01/03 07:03:09;;;;;;;16.08;1.95;;;10.00;99.90;;;;;;4959104;28;86458;-79
2024/01/03 07:05:37;;;;;;;15.55;2.20;;;10.00;99.90;;;;;;4970421;28;86454;-78
2024/01/03 07:08:02;;;;;;;17.75;1.92;;;10.00;99.90;;;;;;4946607;28;86473;-78
2024/01/03 07:10:31;;;;;;;9.48;1.67;;;10.10;99.90;;;;;;4969444;28;89201;-78
2024/01/03 07:12:59;;;;;;;13.25;1.80;;;10.10;99.90;;;;;;4945194;28;89746;-78
2024/01/03 07:15:32;;;;;;;11.68;1.70;;;10.10;99.90;;;;;;4955624;28;86549;-78
2024/01/03 07:17:59;;;;;;;15.83;2.07;;;10.10;99.90;;;;;;4955765;28;85840;-77
2024/01/03 07:20:25;;;;;;;16.85;3.58;;;10.10;99.90;;;;;;4972238;28;86821;-78
2024/01/03 07:22:54;;;;;;;19.58;3.85;;;10.10;99.90;;;;;;4974760;28;86628;-78
2024/01/03 07:25:21;;;;;;;14.20;1.75;;;10.10;99.90;;;;;;4954182;28;86617;-78
2024/01/03 07:27:51;;;;;;;16.80;1.45;;;10.10;99.90;;;;;;4958080;28;86014;-78
2024/01/03 07:30:17;;;;;;;11.40;1.10;;;10.10;99.90;;;;;;4972759;28;87451;-78
2024/01/03 07:32:43;;;;;;;11.30;1.42;;;10.10;99.90;;;;;;4950230;28;89840;-77
2024/01/03 07:35:13;;;;;;;9.45;0.90;;;10.10;99.90;;;;;;4954757;28;86117;-78
2024/01/03 07:37:41;;;;;;;11.48;1.38;;;10.10;99.90;;;;;;4973409;28;87288;-79
2024/01/03 07:40:07;;;;;;;9.23;1.55;;;10.10;99.90;;;;;;4954622;28;88444;-78
2024/01/03 07:42:33;;;;;;;10.18;1.20;;;10.10;99.90;;;;;;4951843;28;89209;-79
2024/01/03 07:45:02;;;;;;;9.45;1.38;;;10.00;99.90;;;;;;4950394;28;87329;-78
2024/01/03 07:47:34;;;;;;;11.23;1.15;;;10.00;99.90;;;;;;4953769;28;86519;-77
2024/01/03 07:50:01;;;;;;;12.75;1.45;;;9.90;99.90;;;;;;4971947;28;89428;-78
2024/01/03 07:52:27;;;;;;;8.77;1.05;;;9.80;99.90;;;;;;4970024;28;88554;-78
2024/01/03 07:54:54;;;;;;;12.93;1.98;;;9.90;99.90;;;;;;4972329;28;86036;-77
2024/01/03 07:57:22;;;;;;;13.95;1.85;;;9.90;99.90;;;;;;4955975;28;86034;-77
2024/01/03 07:59:53;;;;;;;6.30;0.90;;;9.80;99.90;;;;;;4956820;28;86644;-78
2024/01/03 08:02:42;;;;;;;12.32;1.67;;;9.80;99.90;;;;;;4953444;28;87105;-80
2024/01/03 08:05:09;;;;;;;9.32;1.50;;;9.80;99.90;;;;;;4974323;28;86455;-78
2024/01/03 08:07:37;;;;;;;10.15;1.10;;;9.70;99.90;;;;;;4955906;28;87438;-78
2024/01/03 08:10:03;;;;;;;11.85;1.00;;;9.70;99.90;;;;;;4955033;28;88949;-77
2024/01/03 08:12:31;;;;;;;11.63;1.33;;;9.70;99.90;;;;;;4939250;28;89624;-78
2024/01/03 08:14:58;;;;;;;12.77;2.42;;;9.70;99.90;;;;;;4953646;28;86553;-77
2024/01/03 08:17:25;;;;;;;10.45;1.70;;;9.70;99.90;;;;;;4959890;28;86545;-78
2024/01/03 08:19:51;;;;;;;9.20;1.35;;;9.70;99.90;;;;;;4979921;28;87837;-79
2024/01/03 08:22:20;;;;;;;10.57;1.65;;;9.70;99.90;;;;;;4977308;28;89439;-78
2024/01/03 08:24:47;;;;;;;10.65;1.58;;;9.70;99.90;;;;;;4944653;28;86353;-77
2024/01/03 08:27:17;;;;;;;11.55;1.90;;;9.70;99.90;;;;;;4947342;28;86547;-80
2024/01/03 08:29:44;;;;;;;9.73;1.58;;;9.70;99.90;;;;;;4974333;28;86727;-77
2024/01/03 08:32:15;;;;;;;8.98;1.73;;;9.70;99.90;;;;;;4969357;28;88764;-77
2024/01/03 08:34:44;;;;;;;9.15;1.30;;;9.80;99.90;;;;;;4955485;28;86447;-80
2024/01/03 08:37:14;;;;;;;22.83;3.30;;;9.80;99.90;;;;;;4972103;28;86581;-79
2024/01/03 08:39:39;;;;;;;15.40;2.22;;;9.80;99.90;;;;;;4974408;28;86901;-80
2024/01/03 08:42:05;;;;;;;11.82;1.60;;;9.90;99.90;;;;;;4955132;28;88796;-78
2024/01/03 08:44:34;;;;;;;12.05;2.22;;;10.00;99.90;;;;;;4974509;28;87985;-81
2024/01/03 08:47:00;;;;;;;16.40;2.25;;;10.00;99.90;;;;;;4958311;28;86730;-80
2024/01/03 08:49:28;;;;;;;15.30;2.10;;;10.10;99.90;;;;;;4967958;28;90219;-79
2024/01/03 08:51:57;;;;;;;19.92;2.80;;;10.10;99.90;;;;;;4964517;28;87413;-80
2024/01/03 08:54:27;;;;;;;10.90;1.90;;;10.20;99.90;;;;;;4956170;28;91492;-77
2024/01/03 08:56:55;;;;;;;17.35;2.00;;;10.20;99.90;;;;;;4940797;28;87198;-79
2024/01/03 08:59:28;;;;;;;17.95;2.60;;;10.20;99.90;;;;;;4973011;28;88547;-77
2024/01/03 09:01:56;;;;;;;20.15;3.28;;;10.20;99.90;;;;;;4956606;28;92378;-79
2024/01/03 09:04:22;;;;;;;13.05;1.83;;;10.20;99.90;;;;;;4955413;28;92069;-82
2024/01/03 09:06:52;;;;;;;14.30;2.47;;;10.30;99.90;;;;;;4954964;28;87157;-77
2024/01/03 09:09:18;;;;;;;20.90;1.63;;;10.30;99.90;;;;;;4957863;28;90401;-79
2024/01/03 09:11:44;;;;;;;12.45;1.20;;;10.30;99.90;;;;;;4955846;28;87412;-79
2024/01/03 09:14:10;;;;;;;23.58;2.10;;;10.30;99.90;;;;;;4974441;28;87118;-82
2024/01/03 09:16:39;;;;;;;22.35;2.50;;;10.30;99.90;;;;;;4976724;28;87893;-78
2024/01/03 09:19:05;;;;;;;16.80;1.85;;;10.30;99.90;;;;;;4958080;28;88707;-78
2024/01/03 09:21:31;;;;;;;16.70;1.65;;;10.20;99.90;;;;;;4963829;28;91822;-78
2024/01/03 09:23:57;;;;;;;14.02;3.00;;;10.30;99.90;;;;;;4964107;28;87163;-80
2024/01/03 09:26:24;;;;;;;19.27;1.77;;;10.30;99.90;;;;;;4971173;28;95601;-79
2024/01/03 09:28:55;;;;;;;21.55;2.30;;;10.30;99.90;;;;;;4973145;28;88070;-77
2024/01/03 09:31:25;;;;;;;21.15;2.95;;;10.30;99.90;;;;;;4973558;28;87935;-78
2024/01/03 09:33:52;;;;;;;13.27;1.70;;;10.30;99.90;;;;;;4952778;28;87610;-79
2024/01/03 09:36:26;;;;;;;14.20;1.85;;;10.40;99.90;;;;;;4954446;28;87072;-80
2024/01/03 09:38:55;;;;;;;18.52;1.58;;;10.40;99.90;;;;;;4962709;28;87479;-81
2024/01/03 09:41:22;;;;;;;11.20;1.88;;;10.40;99.90;;;;;;4945471;28;88837;-82
2024/01/03 09:43:52;;;;;;;17.48;1.80;;;10.40;99.90;;;;;;4972616;28;87871;-81
2024/01/03 09:46:28;;;;;;;13.73;1.73;;;10.50;99.90;;;;;;4973586;28;87129;-81
2024/01/03 09:48:54;;;;;;;13.13;1.85;;;10.50;99.90;;;;;;4955444;28;90288;-79
2024/01/03 09:51:21;;;;;;;13.30;1.95;;;10.50;99.90;;;;;;4954405;28;88941;-80
2024/01/03 09:53:54;;;;;;;12.30;1.75;;;10.50;99.90;;;;;;4953100;28;90864;-82
2024/01/03 09:56:20;;;;;;;;;;;10.50;99.90;;;;;;4958676;28;87509;-79
2024/01/03 09:58:47;;;;;;;16.08;2.10;;;10.50;99.90;;;;;;4977338;28;90153;-78
2024/01/03 10:01:14;;;;;;;13.20;1.75;;;10.60;99.90;;;;;;4958310;28;87753;-78
2024/01/03 10:03:39;;;;;;;24.13;3.17;;;10.60;99.90;;;;;;4952352;28;89847;-79
2024/01/03 10:06:13;;;;;;;9.98;2.42;;;10.60;99.90;;;;;;4957332;28;87189;-82
2024/01/03 10:08:58;;;;;;;15.32;1.50;;;10.60;99.90;;;;;;4975012;28;86895;-78
2024/01/03 10:11:30;;;;;;;14.60;1.83;;;10.70;99.90;;;;;;4955545;28;90726;-78
2024/01/03 10:14:13;;;;;;;13.03;2.80;;;10.70;99.90;;;;;;4953423;28;90073;-79
2024/01/03 10:16:40;;;;;;;16.92;1.70;;;10.80;99.90;;;;;;4939431;28;89293;-78
2024/01/03 10:19:15;;;;;;;18.15;1.83;;;10.80;99.90;;;;;;4948119;28;89547;-77
2024/01/03 10:21:53;;;;;;;17.05;2.38;;;10.80;99.90;;;;;;4970681;28;88511;-79
2024/01/03 10:24:26;;;;;;;12.30;1.88;;;10.80;99.90;;;;;;4949952;28;91026;-78
2024/01/03 10:26:53;;;;;;;;;;;10.80;99.90;;;;;;4933865;28;87570;-79
2024/01/03 10:29:21;;;;;;;17.05;1.75;;;10.70;99.90;;;;;;4959848;28;87759;-77
2024/01/03 10:31:56;;;;;;;13.18;2.50;;;10.70;99.90;;;;;;4970224;28;89625;-79
2024/01/03 10:37:46;;;;;;;16.48;1.50;;;10.70;99.90;;;;;;4964891;28;87562;-79
2024/01/03 10:40:13;;;;;;;11.10;2.78;;;10.80;99.90;;;;;;4966562;28;90673;-80
2024/01/03 10:42:40;;;;;;;13.45;1.60;;;10.90;99.90;;;;;;4939998;28;91783;-79
2024/01/03 10:45:08;;;;;;;21.02;1.90;;;11.00;99.90;;;;;;4952119;28;92205;-79
2024/01/03 10:47:38;;;;;;;14.30;1.60;;;11.00;99.90;;;;;;4953015;28;87386;-75
2024/01/03 10:50:05;;;;;;;13.00;1.95;;;11.00;99.90;;;;;;4959690;28;91576;-81
2024/01/03 10:52:37;;;;;;;21.23;2.35;;;11.10;99.90;;;;;;4964942;28;89959;-79
2024/01/03 10:55:06;;;;;;;13.27;2.42;;;11.10;99.90;;;;;;4950111;28;89725;-80
2024/01/03 10:57:40;;;;;;;18.73;2.72;;;11.10;99.90;;;;;;4949360;28;87170;-78
2024/01/03 11:00:18;;;;;;;19.88;1.92;;;11.10;99.90;;;;;;4967906;28;87437;-81
2024/01/03 11:03:24;;;;;;;15.68;2.67;;;11.10;99.90;;;;;;4967239;28;87343;-79
2024/01/03 11:06:08;;;;;;;20.15;3.03;;;11.10;99.90;;;;;;4943575;28;88058;-80
2024/01/03 11:09:04;;;;;;;15.20;2.45;;;11.10;99.90;;;;;;4962956;28;88522;-77
2024/01/03 11:11:36;;;;;;;16.50;1.38;;;11.20;99.90;;;;;;4948835;28;89785;-77
2024/01/03 11:14:23;;;;;;;13.00;2.38;;;11.20;99.90;;;;;;4975178;28;88248;-79
2024/01/03 11:16:49;;;;;;;13.07;1.50;;;11.20;99.90;;;;;;4970613;28;93039;-79
2024/01/03 11:19:25;;;;;;;16.27;2.13;;;11.20;99.90;;;;;;4970542;28;87889;-80
2024/01/03 11:21:51;;;;;;;19.88;2.15;;;11.20;99.90;;;;;;4972562;28;88048;-80
2024/01/03 11:24:20;;;;;;;15.48;2.15;;;11.20;99.90;;;;;;4973021;28;88640;-80
2024/01/03 11:26:52;;;;;;;21.13;1.98;;;11.20;99.90;;;;;;4956703;28;90928;-79
2024/01/03 11:29:43;;;;;;;10.25;1.70;;;11.20;99.90;;;;;;4971652;28;87772;-78
2024/01/03 11:32:12;;;;;;;13.90;1.73;;;11.20;99.90;;;;;;4967421;28;87449;-79
2024/01/03 11:34:37;;;;;;;14.05;2.08;;;11.20;99.90;;;;;;4956043;28;92593;-76
2024/01/03 11:37:30;;;;;;;13.15;2.05;;;11.30;99.90;;;;;;4973181;28;92176;-78
2024/01/03 11:39:58;;;;;;;15.18;2.38;;;11.30;99.90;;;;;;4955254;28;87685;-77
2024/01/03 11:42:23;;;;;;;22.35;2.78;;;11.20;99.90;;;;;;4971496;28;87605;-77
2024/01/03 11:45:19;;;;;;;21.77;2.92;;;11.20;99.90;;;;;;4953416;28;91719;-78
2024/01/03 11:47:47;;;;;;;18.73;3.40;;;11.20;99.90;;;;;;4955345;28;92457;-80
2024/01/03 11:50:16;;;;;;;21.55;2.65;;;11.20;99.90;;;;;;4965792;28;87532;-76
2024/01/03 11:52:47;;;;;;;19.63;1.67;;;11.30;99.90;;;;;;4971106;28;89648;-78
2024/01/03 11:55:18;;;;;;;12.70;1.95;;;11.30;99.90;;;;;;4954819;28;91630;-78
2024/01/03 11:57:55;;;;;;;13.85;1.77;;;11.40;99.90;;;;;;4953068;28;88258;-77
2024/01/03 12:00:26;;;;;;;12.52;2.28;;;11.50;99.90;;;;;;4928015;28;89025;-76
2024/01/03 12:03:03;;;;;;;18.52;2.20;;;11.60;99.90;;;;;;4933461;28;90604;-78
2024/01/03 12:05:30;;;;;;;17.45;2.88;;;11.70;99.90;;;;;;4952615;28;91621;-77
2024/01/03 12:08:02;;;;;;;15.07;1.98;;;11.80;99.90;;;;;;4953247;28;88010;-76
2024/01/03 12:10:28;;;;;;;13.82;2.53;;;11.80;99.90;;;;;;4941138;28;87987;-77
2024/01/03 12:12:59;;;;;;;17.17;2.08;;;11.80;99.90;;;;;;4954243;28;89965;-77
2024/01/03 12:15:29;;;;;;;16.92;2.28;;;11.90;99.90;;;;;;4963528;28;88889;-77
2024/01/03 12:18:19;;;;;;;21.42;2.70;;;11.90;99.90;;;;;;4953505;28;89098;-78
2024/01/03 12:20:46;;;;;;;13.15;2.20;;;11.90;99.90;;;;;;4949383;28;87347;-76
2024/01/03 12:23:15;;;;;;;9.02;1.38;;;11.80;99.90;;;;;;4969955;28;87436;-77
2024/01/03 12:25:47;;;;;;;12.15;1.95;;;11.80;99.90;;;;;;4953287;28;89189;-77
2024/01/03 12:28:19;;;;;;;15.15;1.77;;;11.80;99.90;;;;;;4968752;28;92096;-76
2024/01/03 12:30:50;;;;;;;15.40;1.80;;;11.80;99.90;;;;;;4971738;28;88195;-77
2024/01/03 12:33:20;;;;;;;13.55;1.98;;;11.80;99.90;;;;;;4953298;28;87710;-77
2024/01/03 12:35:48;;;;;;;15.50;1.90;;;11.80;99.90;;;;;;4961329;28;87877;-77
2024/01/03 12:38:14;;;;;;;12.63;1.60;;;11.70;99.90;;;;;;4955377;28;91364;-77
2024/01/03 12:40:42;;;;;;;13.13;1.75;;;11.70;99.90;;;;;;4957076;28;87579;-77
2024/01/03 12:43:08;;;;;;;15.40;2.42;;;11.70;99.90;;;;;;4945046;28;87041;-76
2024/01/03 12:45:35;;;;;;;15.90;2.00;;;11.70;99.90;;;;;;4966986;28;90490;-78
2024/01/03 12:48:01;;;;;;;11.68;2.65;;;11.70;99.90;;;;;;4959339;28;87898;-77
2024/01/03 12:50:31;;;;;;;19.08;1.98;;;11.80;99.90;;;;;;4968729;28;88830;-77
2024/01/03 12:53:16;;;;;;;16.80;1.50;;;11.80;99.90;;;;;;4936071;28;90089;-78
2024/01/03 12:56:18;;;;;;;21.27;2.80;;;11.90;99.90;;;;;;4938202;28;95896;-77
2024/01/03 12:58:47;;;;;;;13.40;2.85;;;12.00;99.90;;;;;;4934675;28;95438;-77